sensor_id;sensor_type;location;lat;lon;timestamp;P1;durP1;ratioP1;P2;durP2;ratioP2
15889;SDS011;8043;49.388;12.128;2022-07-29T00:04:33;1.60;;;1.50;;
15889;SDS011;8043;49.388;12.128;2022-07-29T00:09:36;1.63;;;1.50;;
15889;SDS011;8043;49.388;12.128;2022-07-29T00:14:39;1.97;;;1.50;;
15889;SDS011;8043;49.388;12.128;2022-07-29T00:19:41;4.60;;;1.60;;
15889;SDS011;8043;49.388;12.128;2022-07-29T00:24:43;2.43;;;1.73;;
15889;SDS011;8043;49.388;12.128;2022-07-29T00:29:45;2.80;;;1.43;;
15889;SDS011;8043;49.388;12.128;2022-07-29T00:34:47;2.23;;;1.30;;
15889;SDS011;8043;49.388;12.128;2022-07-29T00:40:08;1.83;;;1.50;;
15889;SDS011;8043;49.388;12.128;2022-07-29T00:45:10;3.53;;;1.53;;
15889;SDS011;8043;49.388;12.128;2022-07-29T00:50:13;3.07;;;1.60;;
15889;SDS011;8043;49.388;12.128;2022-07-29T00:55:16;2.70;;;1.60;;
15889;SDS011;8043;49.388;12.128;2022-07-29T01:00:20;3.90;;;1.70;;
15889;SDS011;8043;49.388;12.128;2022-07-29T01:05:23;2.90;;;1.70;;
15889;SDS011;8043;49.388;12.128;2022-07-29T01:10:27;2.57;;;1.90;;
15889;SDS011;8043;49.388;12.128;2022-07-29T01:15:29;4.87;;;1.80;;
15889;SDS011;8043;49.388;12.128;2022-07-29T01:26:02;2.33;;;1.50;;
15889;SDS011;8043;49.388;12.128;2022-07-29T01:31:04;9.20;;;2.30;;
15889;SDS011;8043;49.388;12.128;2022-07-29T01:36:08;5.03;;;1.87;;
15889;SDS011;8043;49.388;12.128;2022-07-29T01:41:19;3.17;;;1.70;;
15889;SDS011;8043;49.388;12.128;2022-07-29T01:46:26;6.07;;;2.00;;
15889;SDS011;8043;49.388;12.128;2022-07-29T01:51:35;8.07;;;2.60;;
15889;SDS011;8043;49.388;12.128;2022-07-29T01:56:38;4.60;;;2.30;;
15889;SDS011;8043;49.388;12.128;2022-07-29T02:01:41;3.93;;;1.90;;
15889;SDS011;8043;49.388;12.128;2022-07-29T02:06:44;4.00;;;2.20;;
15889;SDS011;8043;49.388;12.128;2022-07-29T02:11:49;5.93;;;2.70;;
15889;SDS011;8043;49.388;12.128;2022-07-29T02:16:54;3.53;;;2.40;;
15889;SDS011;8043;49.388;12.128;2022-07-29T02:21:57;4.63;;;2.53;;
15889;SDS011;8043;49.388;12.128;2022-07-29T02:27:00;4.73;;;2.80;;
15889;SDS011;8043;49.388;12.128;2022-07-29T02:32:04;3.80;;;2.37;;
15889;SDS011;8043;49.388;12.128;2022-07-29T02:37:08;4.47;;;2.30;;
15889;SDS011;8043;49.388;12.128;2022-07-29T02:42:13;5.23;;;2.53;;
15889;SDS011;8043;49.388;12.128;2022-07-29T02:47:17;4.17;;;2.20;;
15889;SDS011;8043;49.388;12.128;2022-07-29T02:52:31;2.70;;;2.30;;
15889;SDS011;8043;49.388;12.128;2022-07-29T02:57:36;4.27;;;2.87;;
15889;SDS011;8043;49.388;12.128;2022-07-29T03:02:42;6.83;;;2.57;;
15889;SDS011;8043;49.388;12.128;2022-07-29T03:07:46;11.20;;;2.43;;
15889;SDS011;8043;49.388;12.128;2022-07-29T03:12:51;4.80;;;2.83;;
15889;SDS011;8043;49.388;12.128;2022-07-29T03:17:53;5.07;;;2.90;;
15889;SDS011;8043;49.388;12.128;2022-07-29T03:22:56;3.97;;;2.70;;
15889;SDS011;8043;49.388;12.128;2022-07-29T03:27:58;6.57;;;2.67;;
15889;SDS011;8043;49.388;12.128;2022-07-29T03:33:00;7.20;;;2.50;;
15889;SDS011;8043;49.388;12.128;2022-07-29T03:38:03;5.57;;;3.13;;
15889;SDS011;8043;49.388;12.128;2022-07-29T03:43:05;5.53;;;2.80;;
15889;SDS011;8043;49.388;12.128;2022-07-29T03:48:09;7.13;;;3.43;;
15889;SDS011;8043;49.388;12.128;2022-07-29T03:53:12;5.70;;;2.80;;
15889;SDS011;8043;49.388;12.128;2022-07-29T03:58:15;8.00;;;3.10;;
15889;SDS011;8043;49.388;12.128;2022-07-29T04:03:18;4.93;;;2.93;;
15889;SDS011;8043;49.388;12.128;2022-07-29T04:08:20;6.17;;;2.50;;
15889;SDS011;8043;49.388;12.128;2022-07-29T04:13:22;4.70;;;3.00;;
15889;SDS011;8043;49.388;12.128;2022-07-29T04:18:25;4.97;;;2.90;;
15889;SDS011;8043;49.388;12.128;2022-07-29T04:23:29;4.00;;;2.63;;
15889;SDS011;8043;49.388;12.128;2022-07-29T04:28:32;5.17;;;2.53;;
15889;SDS011;8043;49.388;12.128;2022-07-29T04:33:35;4.67;;;2.93;;
15889;SDS011;8043;49.388;12.128;2022-07-29T04:38:38;10.37;;;3.17;;
15889;SDS011;8043;49.388;12.128;2022-07-29T04:43:40;5.97;;;3.50;;
15889;SDS011;8043;49.388;12.128;2022-07-29T04:48:44;5.83;;;2.80;;
15889;SDS011;8043;49.388;12.128;2022-07-29T04:53:48;6.67;;;3.50;;
15889;SDS011;8043;49.388;12.128;2022-07-29T04:58:50;4.43;;;3.07;;
15889;SDS011;8043;49.388;12.128;2022-07-29T05:03:52;4.47;;;3.50;;
15889;SDS011;8043;49.388;12.128;2022-07-29T05:08:54;5.80;;;2.77;;
15889;SDS011;8043;49.388;12.128;2022-07-29T05:13:57;5.77;;;2.87;;
15889;SDS011;8043;49.388;12.128;2022-07-29T05:18:59;7.00;;;2.60;;
15889;SDS011;8043;49.388;12.128;2022-07-29T05:24:02;7.37;;;3.10;;
15889;SDS011;8043;49.388;12.128;2022-07-29T05:29:04;5.90;;;2.80;;
15889;SDS011;8043;49.388;12.128;2022-07-29T05:34:06;6.33;;;3.40;;
15889;SDS011;8043;49.388;12.128;2022-07-29T05:39:09;4.80;;;2.90;;
15889;SDS011;8043;49.388;12.128;2022-07-29T05:44:13;5.97;;;3.00;;
15889;SDS011;8043;49.388;12.128;2022-07-29T05:49:15;4.97;;;2.77;;
15889;SDS011;8043;49.388;12.128;2022-07-29T05:54:17;4.27;;;3.00;;
15889;SDS011;8043;49.388;12.128;2022-07-29T05:59:20;8.17;;;3.10;;
15889;SDS011;8043;49.388;12.128;2022-07-29T06:04:22;6.03;;;3.00;;
15889;SDS011;8043;49.388;12.128;2022-07-29T06:09:24;6.23;;;2.87;;
15889;SDS011;8043;49.388;12.128;2022-07-29T06:14:27;8.27;;;3.27;;
15889;SDS011;8043;49.388;12.128;2022-07-29T06:19:29;7.13;;;2.80;;
15889;SDS011;8043;49.388;12.128;2022-07-29T06:24:32;4.97;;;2.70;;
15889;SDS011;8043;49.388;12.128;2022-07-29T06:29:34;8.10;;;3.03;;
15889;SDS011;8043;49.388;12.128;2022-07-29T06:34:36;4.50;;;2.30;;
15889;SDS011;8043;49.388;12.128;2022-07-29T06:39:38;4.13;;;2.57;;
15889;SDS011;8043;49.388;12.128;2022-07-29T06:44:41;5.80;;;2.77;;
15889;SDS011;8043;49.388;12.128;2022-07-29T06:49:43;5.87;;;2.70;;
15889;SDS011;8043;49.388;12.128;2022-07-29T06:54:45;5.30;;;2.90;;
15889;SDS011;8043;49.388;12.128;2022-07-29T06:59:48;6.37;;;2.90;;
15889;SDS011;8043;49.388;12.128;2022-07-29T07:04:51;7.33;;;2.70;;
15889;SDS011;8043;49.388;12.128;2022-07-29T07:09:53;6.93;;;3.10;;
15889;SDS011;8043;49.388;12.128;2022-07-29T07:14:56;4.53;;;2.47;;
15889;SDS011;8043;49.388;12.128;2022-07-29T07:19:58;6.17;;;3.43;;
15889;SDS011;8043;49.388;12.128;2022-07-29T07:25:00;3.97;;;2.60;;
15889;SDS011;8043;49.388;12.128;2022-07-29T07:30:03;5.33;;;2.60;;
15889;SDS011;8043;49.388;12.128;2022-07-29T07:35:07;3.47;;;2.80;;
15889;SDS011;8043;49.388;12.128;2022-07-29T07:40:10;4.43;;;2.57;;
15889;SDS011;8043;49.388;12.128;2022-07-29T07:45:13;5.10;;;2.70;;
15889;SDS011;8043;49.388;12.128;2022-07-29T07:50:15;4.23;;;2.30;;
15889;SDS011;8043;49.388;12.128;2022-07-29T07:55:20;5.90;;;3.00;;
15889;SDS011;8043;49.388;12.128;2022-07-29T08:00:22;5.13;;;2.77;;
15889;SDS011;8043;49.388;12.128;2022-07-29T08:05:25;3.17;;;2.30;;
15889;SDS011;8043;49.388;12.128;2022-07-29T08:10:27;3.80;;;2.30;;
15889;SDS011;8043;49.388;12.128;2022-07-29T08:15:47;3.27;;;2.40;;
15889;SDS011;8043;49.388;12.128;2022-07-29T08:20:52;4.37;;;2.40;;
15889;SDS011;8043;49.388;12.128;2022-07-29T08:25:54;4.77;;;2.60;;
15889;SDS011;8043;49.388;12.128;2022-07-29T08:30:57;3.97;;;2.60;;
15889;SDS011;8043;49.388;12.128;2022-07-29T08:35:59;4.97;;;2.50;;
15889;SDS011;8043;49.388;12.128;2022-07-29T08:41:02;5.73;;;2.93;;
15889;SDS011;8043;49.388;12.128;2022-07-29T08:46:04;5.07;;;2.57;;
15889;SDS011;8043;49.388;12.128;2022-07-29T08:51:07;6.93;;;2.93;;
15889;SDS011;8043;49.388;12.128;2022-07-29T08:56:12;4.17;;;2.87;;
15889;SDS011;8043;49.388;12.128;2022-07-29T09:01:23;4.87;;;2.57;;
15889;SDS011;8043;49.388;12.128;2022-07-29T09:06:25;5.17;;;2.77;;
15889;SDS011;8043;49.388;12.128;2022-07-29T09:11:32;6.72;;;2.80;;
15889;SDS011;8043;49.388;12.128;2022-07-29T09:16:44;3.47;;;2.75;;
15889;SDS011;8043;49.388;12.128;2022-07-29T09:21:48;3.58;;;2.70;;
15889;SDS011;8043;49.388;12.128;2022-07-29T09:26:59;3.17;;;2.62;;
15889;SDS011;8043;49.388;12.128;2022-07-29T09:32:02;4.83;;;3.15;;
15889;SDS011;8043;49.388;12.128;2022-07-29T09:37:07;5.75;;;2.92;;
15889;SDS011;8043;49.388;12.128;2022-07-29T09:42:09;5.03;;;3.30;;
15889;SDS011;8043;49.388;12.128;2022-07-29T09:47:12;5.25;;;3.58;;
15889;SDS011;8043;49.388;12.128;2022-07-29T09:52:15;5.87;;;3.20;;
15889;SDS011;8043;49.388;12.128;2022-07-29T09:57:27;5.62;;;3.10;;
15889;SDS011;8043;49.388;12.128;2022-07-29T10:02:30;5.60;;;3.25;;
15889;SDS011;8043;49.388;12.128;2022-07-29T10:07:44;4.60;;;2.80;;
15889;SDS011;8043;49.388;12.128;2022-07-29T10:17:58;6.58;;;3.05;;
15889;SDS011;8043;49.388;12.128;2022-07-29T10:23:00;3.02;;;2.52;;
15889;SDS011;8043;49.388;12.128;2022-07-29T10:28:04;4.72;;;2.92;;
15889;SDS011;8043;49.388;12.128;2022-07-29T10:43:28;4.70;;;2.85;;
15889;SDS011;8043;49.388;12.128;2022-07-29T10:48:33;3.52;;;2.70;;
15889;SDS011;8043;49.388;12.128;2022-07-29T10:53:48;5.85;;;2.98;;
15889;SDS011;8043;49.388;12.128;2022-07-29T11:10:18;2.77;;;2.47;;
15889;SDS011;8043;49.388;12.128;2022-07-29T11:15:11;3.87;;;2.57;;
15889;SDS011;8043;49.388;12.128;2022-07-29T11:25:34;4.35;;;2.95;;
15889;SDS011;8043;49.388;12.128;2022-07-29T11:30:49;6.25;;;2.83;;
15889;SDS011;8043;49.388;12.128;2022-07-29T11:36:27;3.65;;;3.15;;
15889;SDS011;8043;49.388;12.128;2022-07-29T11:41:20;3.47;;;2.70;;
15889;SDS011;8043;49.388;12.128;2022-07-29T11:46:43;3.67;;;2.60;;
15889;SDS011;8043;49.388;12.128;2022-07-29T11:51:54;5.20;;;3.00;;
15889;SDS011;8043;49.388;12.128;2022-07-29T11:56:58;6.10;;;3.55;;
15889;SDS011;8043;49.388;12.128;2022-07-29T12:02:00;3.45;;;2.80;;
15889;SDS011;8043;49.388;12.128;2022-07-29T12:07:03;3.58;;;2.50;;
15889;SDS011;8043;49.388;12.128;2022-07-29T12:12:06;3.87;;;2.80;;
15889;SDS011;8043;49.388;12.128;2022-07-29T12:17:08;2.92;;;2.50;;
15889;SDS011;8043;49.388;12.128;2022-07-29T12:22:13;2.90;;;2.60;;
15889;SDS011;8043;49.388;12.128;2022-07-29T12:27:19;4.00;;;3.17;;
15889;SDS011;8043;49.388;12.128;2022-07-29T12:32:21;5.30;;;3.12;;
15889;SDS011;8043;49.388;12.128;2022-07-29T12:37:24;6.37;;;3.20;;
15889;SDS011;8043;49.388;12.128;2022-07-29T12:42:27;4.42;;;3.33;;
15889;SDS011;8043;49.388;12.128;2022-07-29T12:47:29;5.95;;;3.37;;
15889;SDS011;8043;49.388;12.128;2022-07-29T12:52:32;4.50;;;3.33;;
15889;SDS011;8043;49.388;12.128;2022-07-29T12:57:49;5.12;;;3.10;;
15889;SDS011;8043;49.388;12.128;2022-07-29T13:02:57;4.37;;;3.20;;
15889;SDS011;8043;49.388;12.128;2022-07-29T13:08:10;5.47;;;3.95;;
15889;SDS011;8043;49.388;12.128;2022-07-29T13:13:14;6.65;;;3.45;;
15889;SDS011;8043;49.388;12.128;2022-07-29T13:18:30;5.45;;;3.58;;
15889;SDS011;8043;49.388;12.128;2022-07-29T13:23:34;5.78;;;3.25;;
15889;SDS011;8043;49.388;12.128;2022-07-29T13:28:36;6.55;;;3.50;;
15889;SDS011;8043;49.388;12.128;2022-07-29T13:33:39;4.78;;;3.35;;
15889;SDS011;8043;49.388;12.128;2022-07-29T13:38:41;5.53;;;3.80;;
15889;SDS011;8043;49.388;12.128;2022-07-29T13:43:43;4.60;;;3.33;;
15889;SDS011;8043;49.388;12.128;2022-07-29T13:48:46;4.58;;;3.67;;
15889;SDS011;8043;49.388;12.128;2022-07-29T13:53:48;4.55;;;3.50;;
15889;SDS011;8043;49.388;12.128;2022-07-29T13:58:51;5.80;;;2.90;;
15889;SDS011;8043;49.388;12.128;2022-07-29T14:03:53;5.08;;;3.02;;
15889;SDS011;8043;49.388;12.128;2022-07-29T14:08:55;3.92;;;2.00;;
15889;SDS011;8043;49.388;12.128;2022-07-29T14:13:57;4.42;;;2.40;;
15889;SDS011;8043;49.388;12.128;2022-07-29T14:19:00;2.47;;;1.70;;
15889;SDS011;8043;49.388;12.128;2022-07-29T14:24:03;1.82;;;1.72;;
15889;SDS011;8043;49.388;12.128;2022-07-29T14:29:05;2.80;;;1.87;;
15889;SDS011;8043;49.388;12.128;2022-07-29T14:34:08;1.40;;;1.20;;
15889;SDS011;8043;49.388;12.128;2022-07-29T14:39:10;1.52;;;1.40;;
15889;SDS011;8043;49.388;12.128;2022-07-29T14:44:12;1.40;;;1.30;;
15889;SDS011;8043;49.388;12.128;2022-07-29T14:49:15;1.60;;;1.50;;
15889;SDS011;8043;49.388;12.128;2022-07-29T14:54:17;1.72;;;1.10;;
15889;SDS011;8043;49.388;12.128;2022-07-29T14:59:19;1.30;;;0.82;;
15889;SDS011;8043;49.388;12.128;2022-07-29T15:04:21;1.35;;;1.10;;
15889;SDS011;8043;49.388;12.128;2022-07-29T15:09:24;2.27;;;1.40;;
15889;SDS011;8043;49.388;12.128;2022-07-29T15:14:26;1.55;;;1.17;;
15889;SDS011;8043;49.388;12.128;2022-07-29T15:19:29;1.42;;;1.10;;
15889;SDS011;8043;49.388;12.128;2022-07-29T15:24:31;2.00;;;1.22;;
15889;SDS011;8043;49.388;12.128;2022-07-29T15:29:34;3.22;;;2.02;;
15889;SDS011;8043;49.388;12.128;2022-07-29T15:34:36;3.33;;;2.62;;
15889;SDS011;8043;49.388;12.128;2022-07-29T15:39:38;3.42;;;2.55;;
15889;SDS011;8043;49.388;12.128;2022-07-29T15:44:41;3.80;;;2.47;;
15889;SDS011;8043;49.388;12.128;2022-07-29T15:49:43;3.30;;;2.60;;
15889;SDS011;8043;49.388;12.128;2022-07-29T15:54:45;3.50;;;2.15;;
15889;SDS011;8043;49.388;12.128;2022-07-29T15:59:47;4.03;;;2.30;;
15889;SDS011;8043;49.388;12.128;2022-07-29T16:04:50;2.67;;;1.80;;
15889;SDS011;8043;49.388;12.128;2022-07-29T16:09:52;3.83;;;2.50;;
15889;SDS011;8043;49.388;12.128;2022-07-29T16:14:54;3.83;;;2.17;;
15889;SDS011;8043;49.388;12.128;2022-07-29T16:19:56;3.77;;;2.17;;
15889;SDS011;8043;49.388;12.128;2022-07-29T16:24:59;4.37;;;2.50;;
15889;SDS011;8043;49.388;12.128;2022-07-29T16:30:02;4.03;;;2.50;;
15889;SDS011;8043;49.388;12.128;2022-07-29T16:35:05;4.30;;;2.50;;
15889;SDS011;8043;49.388;12.128;2022-07-29T16:40:08;2.93;;;2.50;;
15889;SDS011;8043;49.388;12.128;2022-07-29T16:45:10;2.77;;;2.40;;
15889;SDS011;8043;49.388;12.128;2022-07-29T16:50:12;4.17;;;2.57;;
15889;SDS011;8043;49.388;12.128;2022-07-29T16:55:15;3.53;;;2.43;;
15889;SDS011;8043;49.388;12.128;2022-07-29T17:00:17;4.03;;;2.93;;
15889;SDS011;8043;49.388;12.128;2022-07-29T17:05:20;6.20;;;3.30;;
15889;SDS011;8043;49.388;12.128;2022-07-29T17:10:23;4.47;;;3.00;;
15889;SDS011;8043;49.388;12.128;2022-07-29T17:15:26;3.73;;;2.60;;
15889;SDS011;8043;49.388;12.128;2022-07-29T17:20:29;5.97;;;2.70;;
15889;SDS011;8043;49.388;12.128;2022-07-29T17:25:32;4.37;;;2.70;;
15889;SDS011;8043;49.388;12.128;2022-07-29T17:30:35;3.53;;;2.93;;
15889;SDS011;8043;49.388;12.128;2022-07-29T17:35:37;8.33;;;3.30;;
15889;SDS011;8043;49.388;12.128;2022-07-29T17:40:57;5.00;;;3.23;;
15889;SDS011;8043;49.388;12.128;2022-07-29T17:45:59;5.27;;;3.23;;
15889;SDS011;8043;49.388;12.128;2022-07-29T17:51:01;7.60;;;3.90;;
15889;SDS011;8043;49.388;12.128;2022-07-29T17:56:04;4.47;;;3.57;;
15889;SDS011;8043;49.388;12.128;2022-07-29T18:01:07;5.28;;;2.92;;
15889;SDS011;8043;49.388;12.128;2022-07-29T18:06:10;4.77;;;3.17;;
15889;SDS011;8043;49.388;12.128;2022-07-29T18:11:12;6.27;;;3.37;;
15889;SDS011;8043;49.388;12.128;2022-07-29T18:16:15;7.63;;;3.60;;
15889;SDS011;8043;49.388;12.128;2022-07-29T18:21:19;5.80;;;3.30;;
15889;SDS011;8043;49.388;12.128;2022-07-29T18:26:21;5.50;;;3.80;;
15889;SDS011;8043;49.388;12.128;2022-07-29T18:31:23;6.53;;;3.73;;
15889;SDS011;8043;49.388;12.128;2022-07-29T18:36:25;6.40;;;3.83;;
15889;SDS011;8043;49.388;12.128;2022-07-29T18:41:28;5.83;;;3.27;;
15889;SDS011;8043;49.388;12.128;2022-07-29T18:46:30;4.80;;;3.50;;
15889;SDS011;8043;49.388;12.128;2022-07-29T18:51:33;9.17;;;3.77;;
15889;SDS011;8043;49.388;12.128;2022-07-29T18:56:35;5.13;;;3.60;;
15889;SDS011;8043;49.388;12.128;2022-07-29T19:01:38;5.40;;;3.50;;
15889;SDS011;8043;49.388;12.128;2022-07-29T19:06:40;5.67;;;3.30;;
15889;SDS011;8043;49.388;12.128;2022-07-29T19:11:42;5.07;;;3.30;;
15889;SDS011;8043;49.388;12.128;2022-07-29T19:16:45;5.00;;;3.40;;
15889;SDS011;8043;49.388;12.128;2022-07-29T19:21:47;6.40;;;3.27;;
15889;SDS011;8043;49.388;12.128;2022-07-29T19:26:50;8.28;;;3.40;;
15889;SDS011;8043;49.388;12.128;2022-07-29T19:31:52;9.33;;;3.87;;
15889;SDS011;8043;49.388;12.128;2022-07-29T19:36:55;4.73;;;3.00;;
15889;SDS011;8043;49.388;12.128;2022-07-29T19:41:57;6.77;;;3.53;;
15889;SDS011;8043;49.388;12.128;2022-07-29T19:46:59;4.93;;;2.97;;
15889;SDS011;8043;49.388;12.128;2022-07-29T19:52:01;5.67;;;2.87;;
15889;SDS011;8043;49.388;12.128;2022-07-29T19:57:04;5.30;;;3.77;;
15889;SDS011;8043;49.388;12.128;2022-07-29T20:02:06;5.43;;;3.27;;
15889;SDS011;8043;49.388;12.128;2022-07-29T20:07:12;4.73;;;2.93;;
15889;SDS011;8043;49.388;12.128;2022-07-29T20:12:14;7.73;;;3.33;;
15889;SDS011;8043;49.388;12.128;2022-07-29T20:17:16;7.17;;;3.50;;
15889;SDS011;8043;49.388;12.128;2022-07-29T20:22:20;5.27;;;3.43;;
15889;SDS011;8043;49.388;12.128;2022-07-29T20:27:23;6.23;;;3.63;;
15889;SDS011;8043;49.388;12.128;2022-07-29T20:32:25;7.50;;;3.60;;
15889;SDS011;8043;49.388;12.128;2022-07-29T20:37:28;6.27;;;3.90;;
15889;SDS011;8043;49.388;12.128;2022-07-29T20:42:30;11.17;;;4.00;;
15889;SDS011;8043;49.388;12.128;2022-07-29T20:47:33;6.30;;;3.80;;
15889;SDS011;8043;49.388;12.128;2022-07-29T20:52:36;6.27;;;3.70;;
15889;SDS011;8043;49.388;12.128;2022-07-29T20:57:40;4.90;;;3.47;;
15889;SDS011;8043;49.388;12.128;2022-07-29T21:02:43;4.43;;;3.10;;
15889;SDS011;8043;49.388;12.128;2022-07-29T21:07:45;5.47;;;3.53;;
15889;SDS011;8043;49.388;12.128;2022-07-29T21:12:47;6.53;;;3.87;;
15889;SDS011;8043;49.388;12.128;2022-07-29T21:17:49;5.97;;;3.50;;
15889;SDS011;8043;49.388;12.128;2022-07-29T21:22:53;5.23;;;3.50;;
15889;SDS011;8043;49.388;12.128;2022-07-29T21:27:57;4.67;;;3.33;;
15889;SDS011;8043;49.388;12.128;2022-07-29T21:33:17;5.03;;;3.47;;
15889;SDS011;8043;49.388;12.128;2022-07-29T21:38:19;8.33;;;3.80;;
15889;SDS011;8043;49.388;12.128;2022-07-29T21:43:22;6.07;;;3.80;;
15889;SDS011;8043;49.388;12.128;2022-07-29T21:48:27;6.90;;;3.73;;
15889;SDS011;8043;49.388;12.128;2022-07-29T21:53:29;6.10;;;3.87;;
15889;SDS011;8043;49.388;12.128;2022-07-29T21:58:32;5.57;;;3.53;;
15889;SDS011;8043;49.388;12.128;2022-07-29T22:03:34;6.03;;;3.27;;
15889;SDS011;8043;49.388;12.128;2022-07-29T22:08:36;6.23;;;3.30;;
15889;SDS011;8043;49.388;12.128;2022-07-29T22:13:41;5.23;;;3.20;;
15889;SDS011;8043;49.388;12.128;2022-07-29T22:18:45;4.40;;;3.53;;
15889;SDS011;8043;49.388;12.128;2022-07-29T22:23:48;8.13;;;3.67;;
15889;SDS011;8043;49.388;12.128;2022-07-29T22:28:52;5.47;;;3.53;;
15889;SDS011;8043;49.388;12.128;2022-07-29T22:33:54;6.13;;;3.83;;
15889;SDS011;8043;49.388;12.128;2022-07-29T22:38:57;5.90;;;3.43;;
15889;SDS011;8043;49.388;12.128;2022-07-29T22:43:59;5.80;;;3.83;;
15889;SDS011;8043;49.388;12.128;2022-07-29T22:49:01;6.97;;;4.10;;
15889;SDS011;8043;49.388;12.128;2022-07-29T22:54:05;6.03;;;3.70;;
15889;SDS011;8043;49.388;12.128;2022-07-29T22:59:08;5.87;;;3.77;;
15889;SDS011;8043;49.388;12.128;2022-07-29T23:04:10;6.17;;;3.43;;
15889;SDS011;8043;49.388;12.128;2022-07-29T23:09:12;5.67;;;3.90;;
15889;SDS011;8043;49.388;12.128;2022-07-29T23:14:14;6.17;;;3.57;;
15889;SDS011;8043;49.388;12.128;2022-07-29T23:19:20;4.57;;;3.50;;
15889;SDS011;8043;49.388;12.128;2022-07-29T23:24:23;6.67;;;3.67;;
15889;SDS011;8043;49.388;12.128;2022-07-29T23:29:26;8.97;;;4.17;;
15889;SDS011;8043;49.388;12.128;2022-07-29T23:34:28;6.13;;;3.67;;
15889;SDS011;8043;49.388;12.128;2022-07-29T23:39:30;6.13;;;3.73;;
15889;SDS011;8043;49.388;12.128;2022-07-29T23:44:32;6.13;;;4.00;;
15889;SDS011;8043;49.388;12.128;2022-07-29T23:49:35;6.50;;;3.67;;
15889;SDS011;8043;49.388;12.128;2022-07-29T23:54:37;5.70;;;3.83;;
15889;SDS011;8043;49.388;12.128;2022-07-29T23:59:39;7.23;;;4.13;;
